Latest Weather Observations for Orange Airport

IDN60801

Issued at 5:02 am EDT Thursday 2 March 2017 (issued every 30 minutes, with the page automatically refreshed every 10 minutes)

About weather observations | Map of weather stations | Latest weather observations for NSW | Other Formats
Station Details ID: 063303 Name: ORANGE AIRPORT AWS Lat: -33.38 Lon: 149.13 Height: 944.65 m
Data from the previous 72 hours. | See also: Recent months at Orange Airport
Date/Time
EDT
Temp
°C
App
Temp
°C
Dew
Point
°C
Rel
Hum
%
Delta-T
°C
Wind Press
QNH
hPa
Press
MSL
hPa
Rain since
9am
mm
Dir  Spd
km/h
Gust
km/h
Spd
kts
Gust
kts
02/05:00am 12.9 12.3 11.8 93 0.6 NE 6 7 3 4 1020.6 1017.1 0.0
02/04:42am 12.3 12.7 11.2 93 0.6 CALM 0 0 0 0 1020.6 1017.1 0.0
02/04:30am 12.8 13.3 11.7 93 0.6 CALM 0 0 0 0 1020.7 1017.2 0.0
02/04:22am 13.5 14.3 12.4 93 0.6 CALM 0 0 0 0 1020.6 1017.1 0.0
02/04:00am 13.0 12.5 11.9 93 0.6 ENE 6 7 3 4 1020.8 1017.3 0.0
02/03:52am 12.6 11.9 11.5 93 0.6 ENE 6 7 3 4 1020.9 1017.4 0.0
02/03:30am 13.8 13.3 12.7 93 0.6 ENE 7 9 4 5 1020.9 1017.4 0.0
02/03:00am 14.3 14.0 13.2 93 0.6 ENE 7 11 4 6 1021.0 1017.5 0.0
02/02:30am 14.8 14.3 13.7 93 0.6 ENE 9 13 5 7 1021.2 1017.8 0.0
02/02:00am 14.1 13.3 13.0 93 0.6 E 9 11 5 6 1021.6 1018.1 0.0
02/01:30am 15.1 15.9 13.6 91 0.9 E 2 7 1 4 1021.7 1018.2 0.0
02/01:00am 15.9 14.8 14.4 91 0.9 E 13 17 7 9 1022.0 1018.5 0.0
02/12:30am 15.8 15.5 14.3 91 0.9 E 9 15 5 8 1022.2 1018.8 0.0
02/12:00am 15.5 13.2 14.0 91 0.9 E 19 24 10 13 1022.2 1018.8 0.0
 
Date/Time
EDT
Temp
°C
App
Temp
°C
Dew
Point
°C
Rel
Hum
%
Delta-T
°C
Wind Press
QNH
hPa
Press
MSL
hPa
Rain since
9am
mm
Dir  Spd
km/h
Gust
km/h
Spd
kts
Gust
kts
01/11:30pm 15.4 13.4 13.9 91 0.9 E 17 22 9 12 1022.2 1018.8 0.0
01/11:00pm 15.8 14.2 14.0 89 1.1 E 15 20 8 11 1022.2 1018.8 0.0
01/10:30pm 15.7 14.3 13.5 87 1.3 E 13 17 7 9 1022.4 1019.0 0.0
01/10:00pm 15.9 14.4 13.2 84 1.6 E 13 20 7 11 1022.5 1019.1 0.0
01/09:30pm 16.2 15.1 13.1 82 1.8 ENE 11 17 6 9 1022.4 1019.0 0.0
01/09:00pm 17.0 14.7 13.1 78 2.3 E 17 24 9 13 1022.3 1018.9 0.0
01/08:30pm 17.4 14.8 13.9 80 2.1 E 20 28 11 15 1022.2 1018.8 0.0
01/08:00pm 17.8 15.0 13.3 75 2.6 ESE 20 28 11 15 1021.9 1018.4 0.0
01/07:30pm 18.8 16.1 12.8 68 3.5 ESE 19 30 10 16 1021.4 1018.0 0.0
01/07:00pm 20.2 16.9 12.7 62 4.4 E 22 33 12 18 1021.3 1017.9 0.0
01/06:30pm 21.4 16.2 12.8 58 5.1 E 32 41 17 22 1021.0 1017.5 0.0
01/06:00pm 23.6 19.3 13.2 52 6.3 E 28 37 15 20 1020.7 1017.2 0.0
01/05:30pm 24.3 21.1 13.2 50 6.7 E 22 30 12 16 1020.5 1017.0 0.0
01/05:00pm 25.0 21.8 11.9 44 7.8 E 20 28 11 15 1020.4 1016.9 0.0
01/04:30pm 25.2 22.3 12.8 46 7.5 E 20 30 11 16 1020.6 1017.1 0.0
01/04:00pm 23.6 20.0 12.9 51 6.4 E 24 35 13 19 1020.9 1017.4 0.0
01/03:30pm 25.1 22.5 13.3 48 7.2 ENE 19 30 10 16 1021.1 1017.6 0.0
01/03:00pm 25.0 21.9 13.5 48 7.0 E 22 33 12 18 1021.4 1018.0 0.0
01/02:30pm 24.4 21.4 13.6 51 6.6 E 22 32 12 17 1021.7 1018.2 0.0
01/02:00pm 23.2 20.1 13.4 54 5.9 E 22 33 12 18 1022.0 1018.5 0.0
01/01:30pm 24.8 22.0 14.3 52 6.5 E 22 33 12 18 1022.0 1018.5 0.0
01/01:00pm 22.5 19.7 13.3 56 5.5 E 20 30 11 16 1022.2 1018.8 0.0
01/12:30pm 22.7 19.5 13.2 55 5.7 E 22 33 12 18 1022.4 1019.0 0.0
01/12:00pm 24.2 20.1 12.8 49 6.8 E 26 35 14 19 1022.8 1019.3 0.0
01/11:30am 22.6 18.5 13.7 57 5.4 ESE 28 35 15 19 1023.1 1019.7 0.0
01/11:00am 21.7 18.4 13.9 61 4.7 E 24 33 13 18 1023.4 1020.0 0.0
01/10:30am 21.1 17.9 14.3 65 4.1 ESE 24 32 13 17 1023.5 1018.9 0.0
01/10:00am 19.9 15.8 13.8 68 3.7 E 28 39 15 21 1023.5 1018.9 0.0
01/09:30am 19.2 15.2 14.0 72 3.1 E 28 39 15 21 1023.6 1019.0 0.0
01/09:00am 18.7 15.6 14.6 77 2.5 ESE 24 33 13 18 1023.6 1019.0 0.0
01/08:30am 17.9 14.8 14.4 80 2.1 ESE 24 33 13 18 1023.5 1018.9 0.0
01/08:00am 16.8 13.9 14.1 84 1.6 ESE 22 30 12 16 1023.1 1018.5 0.0
01/07:30am 15.7 14.2 14.1 90 0.9 E 15 20 8 11 1023.0 1018.4 0.0
01/07:00am 14.2 12.7 13.1 93 0.6 ESE 13 17 7 9 1022.8 1018.1 0.0
01/06:30am 14.6 11.8 13.1 91 0.9 E 20 28 11 15 1022.4 1017.8 0.0
01/06:00am 14.5 11.8 13.4 93 0.6 E 20 32 11 17 1022.1 1017.5 0.0
01/05:30am 14.2 12.3 13.1 93 0.6 ESE 15 24 8 13 1022.1 1017.5 0.0
01/05:00am 13.9 12.3 12.8 93 0.6 E 13 19 7 10 1022.1 1017.5 0.0
01/04:30am 14.1 12.2 13.0 93 0.6 ESE 15 24 8 13 1022.1 1017.5 0.0
01/04:07am 14.6 13.0 12.8 89 1.0 E 13 17 7 9 1022.3 1017.7 0.0
01/04:00am 14.8 12.6 13.2 90 0.9 E 17 24 9 13 1022.3 1017.7 0.0
01/03:52am 14.8 13.1 13.5 92 0.8 ENE 15 26 8 14 1022.4 1017.8 0.0
01/03:30am 14.3 10.7 13.0 92 0.8 E 24 37 13 20 1022.3 1017.7 0.0
01/03:00am 14.0 11.3 12.9 93 0.6 E 19 26 10 14 1022.8 1018.1 0.0
01/02:30am 13.7 12.0 12.6 93 0.6 E 13 17 7 9 1023.3 1018.7 0.0
01/02:00am 13.8 11.8 12.7 93 0.6 ESE 15 20 8 11 1023.3 1018.7 0.0
01/01:30am 14.0 12.1 12.9 93 0.6 E 15 24 8 13 1023.6 1019.0 0.0
01/01:00am 14.3 12.7 12.7 90 0.9 ENE 13 19 7 10 1024.0 1019.4 0.0
01/12:30am 14.3 12.7 12.9 91 0.8 E 13 19 7 10 1024.0 1019.4 0.0
01/12:00am 14.8 12.4 12.5 86 1.3 E 17 24 9 13 1024.1 1019.5 0.0
 
Date/Time
EDT
Temp
°C
App
Temp
°C
Dew
Point
°C
Rel
Hum
%
Delta-T
°C
Wind Press
QNH
hPa
Press
MSL
hPa
Rain since
9am
mm
Dir  Spd
km/h
Gust
km/h
Spd
kts
Gust
kts
28/11:30pm 15.1 11.6 12.2 83 1.7 E 22 30 12 16 1024.1 1019.5 0.0
28/11:00pm 15.2 11.9 12.7 85 1.4 E 22 32 12 17 1024.2 1019.6 0.0
28/10:30pm 15.7 13.7 13.9 89 1.1 E 17 24 9 13 1024.4 1019.8 0.0
28/10:00pm 16.1 14.1 13.8 86 1.4 ESE 17 24 9 13 1024.5 1019.9 0.0
28/09:30pm 16.8 14.7 13.5 81 1.9 E 17 26 9 14 1024.5 1019.9 0.0
28/09:00pm 17.3 14.8 13.4 78 2.3 E 19 26 10 14 1024.1 1019.5 0.0
28/08:30pm 17.7 14.9 13.2 75 2.6 E 20 30 11 16 1024.0 1019.4 0.0
28/08:00pm 18.3 16.1 13.4 73 2.9 ESE 17 24 9 13 1023.8 1019.1 0.0
28/07:30pm 19.6 16.1 13.3 67 3.7 E 24 33 13 18 1023.4 1018.8 0.0
28/07:00pm 21.0 18.2 13.2 61 4.6 E 20 30 11 16 1023.2 1018.6 0.0
28/06:30pm 21.7 19.2 13.6 60 4.9 ENE 19 26 10 14 1022.9 1018.2 0.0
28/06:00pm 22.0 19.9 13.6 59 5.1 ENE 17 26 9 14 1023.0 1018.4 0.0
28/05:30pm 20.9 19.4 14.3 66 4.0 NE 15 22 8 12 1022.9 1018.2 0.0
28/05:00pm 19.8 17.2 13.7 68 3.6 NE 20 26 11 14 1023.1 1018.5 0.0
28/04:30pm 20.9 17.5 13.8 64 4.3 E 24 33 13 18 1023.1 1018.5 0.0
28/04:00pm 21.8 17.7 12.6 56 5.4 E 26 41 14 22 1022.9 1018.2 0.0
28/03:30pm 23.8 20.8 11.8 47 7.1 E 19 30 10 16 1022.7 1018.0 0.0
28/03:00pm 25.6 22.7 12.4 43 7.9 E 19 28 10 15 1023.1 1018.5 0.0
28/02:30pm 23.5 20.4 11.5 47 7.0 E 19 30 10 16 1023.5 1018.9 0.0
28/02:00pm 23.2 20.2 11.9 49 6.6 ENE 19 28 10 15 1023.6 1019.0 0.0
28/01:30pm 24.0 21.5 12.3 48 7.0 ENE 17 28 9 15 1023.9 1019.2 0.0
28/01:00pm 22.9 20.5 12.8 53 6.0 NE 17 30 9 16 1024.1 1019.5 0.0
28/12:30pm 21.9 18.9 12.5 55 5.6 E 20 32 11 17 1024.5 1019.9 0.0
28/12:00pm 21.2 18.4 13.1 60 4.8 ENE 20 30 11 16 1025.0 1020.4 0.0
28/11:30am 21.6 18.8 13.2 59 5.0 ENE 20 35 11 19 1025.1 1020.5 0.0
28/11:00am 21.1 17.5 13.0 60 4.8 E 24 35 13 19 1025.1 1020.5 0.0
28/10:30am 20.5 16.9 13.2 63 4.3 ENE 24 37 13 20 1025.1 1020.5 0.0
28/10:00am 18.7 14.9 12.5 67 3.6 ENE 24 39 13 21 1025.2 1020.6 0.0
28/09:30am 18.6 15.5 13.5 72 3.0 ENE 22 35 12 19 1025.1 1020.5 0.0
28/09:00am 17.1 14.4 13.6 80 2.1 ENE 20 32 11 17 1024.8 1020.3 0.0
28/08:30am 16.0 13.4 13.8 87 1.3 E 20 32 11 17 1024.7 1020.1 0.0
28/08:00am 15.6 13.1 13.6 88 1.2 E 19 26 10 14 1024.4 1019.8 0.0
28/07:30am 14.0 12.8 12.9 93 0.6 E 11 17 6 9 1024.3 1019.7 0.0
28/07:00am 13.3 11.1 12.2 93 0.6 E 15 20 8 11 1024.0 1019.4 0.0
28/06:30am 13.3 11.5 12.2 93 0.6 E 13 17 7 9 1023.6 1019.0 0.0
28/06:00am 13.4 11.3 12.3 93 0.6 E 15 24 8 13 1023.5 1018.9 0.0
28/05:30am 12.7 11.9 11.6 93 0.6 ENE 7 13 4 7 1023.4 1018.8 0.0
28/05:00am 12.7 11.5 11.6 93 0.6 E 9 15 5 8 1023.3 1018.7 0.0
28/04:30am 13.0 11.5 11.9 93 0.6 E 11 15 6 8 1023.3 1018.7 0.0
28/04:00am 13.2 11.8 12.1 93 0.6 E 11 17 6 9 1023.3 1018.7 0.0
28/03:30am 12.9 11.0 11.8 93 0.6 ESE 13 19 7 10 1023.6 1019.0 0.0
28/03:00am 13.2 11.8 12.1 93 0.6 E 11 17 6 9 1023.9 1019.2 0.0
28/02:30am 13.3 11.8 12.0 92 0.7 E 11 17 6 9 1024.1 1019.5 0.0
28/02:00am 13.3 11.4 11.7 90 0.9 ESE 13 20 7 11 1024.5 1019.9 0.0
28/01:30am 13.7 11.4 11.6 87 1.2 E 15 22 8 12 1024.7 1020.1 0.0
28/01:00am 13.8 10.4 11.3 85 1.4 E 20 32 11 17 1024.8 1020.3 0.0
28/12:30am 14.0 10.6 11.3 84 1.5 E 20 30 11 16 1025.1 1020.5 0.0
28/12:00am 14.1 10.3 11.1 82 1.7 E 22 33 12 18 1025.4 1020.8 0.0
 
Date/Time
EDT
Temp
°C
App
Temp
°C
Dew
Point
°C
Rel
Hum
%
Delta-T
°C
Wind Press
QNH
hPa
Press
MSL
hPa
Rain since
9am
mm
Dir  Spd
km/h
Gust
km/h
Spd
kts
Gust
kts
27/11:30pm 14.4 10.4 10.4 77 2.2 E 22 35 12 19 1025.3 1020.7 0.0
27/11:00pm 14.2 10.0 9.6 74 2.5 E 22 28 12 15 1025.5 1020.9 0.0
27/10:30pm 14.7 11.0 10.1 74 2.5 ESE 20 32 11 17 1025.6 1021.0 0.0
27/10:00pm 14.8 11.2 10.4 75 2.4 E 20 28 11 15 1025.8 1021.3 0.0
27/09:30pm 15.7 10.6 10.7 72 2.8 E 28 39 15 21 1025.6 1021.0 0.0
27/09:00pm 16.4 12.5 10.9 70 3.1 E 22 35 12 19 1025.2 1020.6 0.0
27/08:30pm 17.3 13.4 10.7 65 3.7 E 22 33 12 18 1024.8 1020.3 0.0
27/08:00pm 17.9 13.7 9.8 59 4.5 E 22 32 12 17 1024.5 1019.9 0.0
27/07:30pm 19.0 15.1 9.5 54 5.3 E 20 30 11 16 1024.2 1019.6 0.0
27/07:00pm 20.8 16.0 8.8 46 6.6 E 24 33 13 18 1023.9 1019.2 0.0
27/06:30pm 22.4 17.9 7.0 37 8.3 E 20 32 11 17 1023.5 1018.9 0.0
27/06:00pm 22.8 18.3 7.0 36 8.5 ESE 20 32 11 17 1023.4 1018.8 0.0
27/05:30pm 23.8 19.8 6.6 33 9.3 E 17 28 9 15 1023.4 1018.8 0.0
27/05:00pm 24.3 20.5 7.4 34 9.2 ESE 17 28 9 15 1023.4 1018.8 0.0
27/04:30pm 22.9 18.4 6.2 34 8.9 E 19 32 10 17 1023.5 1018.9 0.0
27/04:00pm 23.7 19.3 7.3 35 8.9 E 20 32 11 17 1023.6 1019.0 0.0
27/03:30pm 24.3 20.2 8.7 37 8.8 E 20 33 11 18 1023.8 1019.1 0.0
27/03:00pm 22.7 18.1 9.5 43 7.4 ESE 24 39 13 21 1024.0 1019.4 0.0
27/02:30pm 23.8 19.3 10.1 42 7.9 E 24 32 13 17 1024.3 1019.7 0.0
27/02:00pm 22.2 18.1 11.3 50 6.3 E 24 39 13 21 1024.6 1020.0 0.0
27/01:30pm 22.5 18.8 10.3 46 7.0 ENE 20 32 11 17 1025.0 1020.4 0.0
27/01:00pm 22.7 19.3 11.4 49 6.6 E 20 32 11 17 1025.2 1020.6 0.0
27/12:30pm 22.4 18.3 11.5 50 6.4 ENE 24 35 13 19 1025.3 1020.7 0.0
27/12:00pm 22.8 19.1 11.5 49 6.6 ENE 22 33 12 18 1025.6 1021.0 0.0
27/11:30am 22.1 18.5 11.8 52 6.0 ENE 22 35 12 19 1025.6 1021.0 0.0
27/11:00am 20.4 16.1 11.9 58 4.9 ENE 26 35 14 19 1025.8 1021.3 0.0
27/10:30am 19.7 15.0 12.0 61 4.5 ENE 28 35 15 19 1025.8 1021.3 0.0
27/10:00am 18.4 14.2 12.4 68 3.5 ENE 26 39 14 21 1026.1 1021.5 0.0
27/09:30am 18.2 14.6 13.1 72 3.0 E 24 35 13 19 1026.1 1021.5 0.0
27/09:00am 17.4 13.8 12.9 75 2.6 E 24 32 13 17 1025.7 1021.1 0.0
27/08:30am 15.8 13.0 13.1 84 1.6 ENE 20 28 11 15 1025.2 1020.6 0.0
27/08:00am 14.4 12.6 13.3 93 0.6 E 15 20 8 11 1025.1 1020.5 0.0
27/07:30am 12.8 11.6 11.7 93 0.6 ENE 9 11 5 6 1024.7 1020.1 0.0
27/07:00am 11.6 10.5 10.5 93 0.6 NE 7 9 4 5 1024.4 1019.8 0.0
27/06:30am 11.7 10.6 10.6 93 0.6 ENE 7 9 4 5 1024.3 1019.7 0.0
27/06:00am 12.0 10.6 10.9 93 0.6 NE 9 11 5 6 1024.0 1019.4 0.0
27/05:40am 12.4 11.5 11.3 93 0.6 NE 7 13 4 7 1023.8 1019.1 0.0
27/05:30am 12.6 11.0 11.5 93 0.6 ENE 11 15 6 8 1023.8 1019.1 0.0
27/05:22am 12.7 11.1 11.6 93 0.6 ENE 11 17 6 9 1023.8 1019.1 0.0

Other Formats:

Comma delimited format used in spreadsheet applications
http://www.bom.gov.au/fwo/IDN60801/IDN60801.95726.axf

JavaScript Object Notation format (JSON) in row-major order
http://www.bom.gov.au/fwo/IDN60801/IDN60801.95726.json